createdAt,value
2017-07-10T00:02:50.218Z,21.20
2017-07-10T00:05:16.270Z,21.20
2017-07-10T00:07:42.334Z,21.30
2017-07-10T00:10:09.164Z,21.40
2017-07-10T00:12:35.228Z,21.40
2017-07-10T00:15:05.361Z,21.50
2017-07-10T00:17:31.416Z,21.60
2017-07-10T00:19:57.476Z,21.50
2017-07-10T00:22:23.523Z,21.50
2017-07-10T00:24:49.550Z,21.30
2017-07-10T00:27:16.319Z,21.20
2017-07-10T00:29:42.375Z,21.20
2017-07-10T00:32:08.414Z,21.20
2017-07-10T00:34:34.489Z,21.30
2017-07-10T00:37:00.549Z,21.40
2017-07-10T00:39:26.598Z,21.40
2017-07-10T00:41:52.645Z,21.60
2017-07-10T00:44:18.697Z,21.80
2017-07-10T00:46:45.474Z,22.10
2017-07-10T00:49:11.517Z,22.10
2017-07-10T00:51:37.544Z,22.30
2017-07-10T00:54:03.612Z,22.40
2017-07-10T00:56:29.652Z,22.40
2017-07-10T00:58:55.753Z,22.50
2017-07-10T01:01:22.839Z,22.50
2017-07-10T01:03:49.656Z,22.50
2017-07-10T01:06:15.725Z,22.50
2017-07-10T01:08:41.763Z,22.60
2017-07-10T01:11:08.612Z,22.70
2017-07-10T01:13:35.395Z,22.60
2017-07-10T01:16:01.443Z,22.60
2017-07-10T01:18:27.468Z,22.70
2017-07-10T01:20:53.543Z,22.80
2017-07-10T01:23:20.975Z,22.80
2017-07-10T01:25:47.041Z,22.80
2017-07-10T01:28:13.826Z,22.80
2017-07-10T01:30:39.892Z,22.80
2017-07-10T01:33:05.980Z,22.80
2017-07-10T01:35:32.052Z,22.80
2017-07-10T01:37:58.136Z,22.80
2017-07-10T01:40:24.224Z,22.80
2017-07-10T01:42:51.062Z,22.90
2017-07-10T01:45:17.128Z,22.90
2017-07-10T01:47:43.246Z,22.90
2017-07-10T01:50:10.068Z,23.00
2017-07-10T01:52:36.157Z,23.00
2017-07-10T01:55:02.260Z,23.00
2017-07-10T01:57:29.067Z,23.00
2017-07-10T01:59:55.110Z,23.00
2017-07-10T02:02:21.192Z,22.90
2017-07-10T02:04:47.251Z,22.60
2017-07-10T02:07:13.326Z,22.10
2017-07-10T02:09:40.102Z,21.80
2017-07-10T02:12:06.176Z,21.80
2017-07-10T02:14:32.228Z,21.90
2017-07-10T02:16:59.055Z,22.20
2017-07-10T02:19:25.106Z,22.20
2017-07-10T02:21:51.929Z,22.50
2017-07-10T02:24:18.008Z,22.40
2017-07-10T02:26:44.061Z,22.40
2017-07-10T02:29:10.121Z,22.50
2017-07-10T02:31:36.160Z,22.60
2017-07-10T02:34:02.244Z,22.70
2017-07-10T02:36:28.287Z,22.80
2017-07-10T02:38:54.356Z,22.60
2017-07-10T02:41:20.931Z,22.50
2017-07-10T02:43:46.972Z,22.40
2017-07-10T02:46:13.043Z,22.20
2017-07-10T02:48:39.103Z,22.50
2017-07-10T02:51:05.900Z,22.50
2017-07-10T02:53:32.000Z,22.50
2017-07-10T02:55:58.048Z,22.30
2017-07-10T02:58:24.083Z,22.00
2017-07-10T03:00:50.116Z,22.00
2017-07-10T03:03:16.148Z,22.10
2017-07-10T03:05:42.228Z,22.00
2017-07-10T03:08:08.991Z,21.40
2017-07-10T03:10:35.028Z,21.40
2017-07-10T03:13:01.049Z,21.20
2017-07-10T03:15:27.100Z,21.10
2017-07-10T03:17:53.132Z,21.10
2017-07-10T03:20:19.172Z,21.30
2017-07-10T03:22:45.298Z,21.40
2017-07-10T03:25:11.360Z,21.10
2017-07-10T03:27:37.459Z,21.10
2017-07-10T03:30:03.484Z,21.10
2017-07-10T03:32:29.529Z,21.10
2017-07-10T03:34:55.596Z,21.10
2017-07-10T03:37:21.637Z,21.30
2017-07-10T03:39:48.396Z,21.70
2017-07-10T03:42:14.429Z,21.70
2017-07-10T03:44:40.455Z,21.90
2017-07-10T03:47:06.484Z,21.70
2017-07-10T03:49:32.498Z,21.70
2017-07-10T03:51:59.316Z,21.50
2017-07-10T03:54:25.392Z,21.50
2017-07-10T03:56:51.436Z,21.40
2017-07-10T03:59:17.470Z,21.50
2017-07-10T04:01:43.549Z,21.60
2017-07-10T04:04:10.329Z,21.70
2017-07-10T04:06:36.356Z,21.70
2017-07-10T04:09:15.983Z,21.80
2017-07-10T04:11:42.031Z,21.70
2017-07-10T04:14:08.055Z,21.70
2017-07-10T04:16:34.117Z,21.80
2017-07-10T04:19:00.143Z,22.00
2017-07-10T04:21:26.164Z,22.20
2017-07-10T04:23:52.197Z,22.30
2017-07-10T04:26:18.227Z,22.50
2017-07-10T04:28:44.261Z,22.50
2017-07-10T04:31:10.324Z,22.50
2017-07-10T04:33:36.411Z,22.60
2017-07-10T04:36:02.483Z,22.70
2017-07-10T04:38:29.287Z,22.70
2017-07-10T04:40:55.319Z,22.70
2017-07-10T04:43:21.349Z,22.70
2017-07-10T04:45:47.370Z,22.70
2017-07-10T04:48:13.415Z,22.50
2017-07-10T04:50:39.432Z,22.50
2017-07-10T04:53:05.501Z,22.60
2017-07-10T04:55:31.537Z,22.70
2017-07-10T04:57:57.566Z,22.70
2017-07-10T05:00:23.596Z,22.60
2017-07-10T05:02:49.648Z,22.50
2017-07-10T05:05:15.712Z,22.30
2017-07-10T05:07:41.756Z,22.40
2017-07-10T05:10:07.844Z,22.20
2017-07-10T05:12:33.881Z,22.20
2017-07-10T05:14:59.929Z,21.90
2017-07-10T05:17:25.957Z,22.00
2017-07-10T05:19:52.008Z,22.00
2017-07-10T05:22:18.024Z,22.20
2017-07-10T05:24:44.096Z,22.00
2017-07-10T05:27:10.154Z,21.70
2017-07-10T05:29:36.196Z,21.90
2017-07-10T05:32:02.223Z,21.90
2017-07-10T05:34:28.354Z,21.80
2017-07-10T05:36:54.402Z,21.60
2017-07-10T05:39:20.448Z,21.80
2017-07-10T05:41:46.516Z,22.00
2017-07-10T05:44:12.592Z,21.80
2017-07-10T05:46:38.613Z,21.70
2017-07-10T05:49:04.649Z,21.30
2017-07-10T05:51:30.718Z,21.20
2017-07-10T05:53:56.769Z,21.30
2017-07-10T05:56:22.854Z,21.60
2017-07-10T05:58:48.894Z,21.50
2017-07-10T06:01:15.001Z,21.40
2017-07-10T06:03:41.092Z,21.30
2017-07-10T06:06:07.868Z,21.40
2017-07-10T06:08:33.913Z,21.40
2017-07-10T06:10:59.986Z,21.70
2017-07-10T06:13:26.787Z,21.60
2017-07-10T06:15:52.829Z,21.60
2017-07-10T06:18:18.884Z,21.70
2017-07-10T06:20:44.937Z,21.60
2017-07-10T06:23:11.717Z,21.70
2017-07-10T06:25:37.737Z,21.70
2017-07-10T06:28:03.809Z,21.90
2017-07-10T06:30:29.855Z,22.10
2017-07-10T06:32:55.908Z,22.20
2017-07-10T06:35:22.709Z,22.40
2017-07-10T06:37:48.763Z,22.40
2017-07-10T06:40:14.876Z,22.50
2017-07-10T06:42:40.935Z,22.60
2017-07-10T06:45:06.973Z,22.50
2017-07-10T06:47:33.777Z,21.90
2017-07-10T06:49:59.833Z,21.90
2017-07-10T06:52:25.924Z,21.60
2017-07-10T06:54:52.012Z,21.60
2017-07-10T06:57:18.837Z,21.60
2017-07-10T06:59:44.890Z,21.60
2017-07-10T07:02:11.681Z,21.80
2017-07-10T07:04:37.790Z,21.80
2017-07-10T07:07:03.876Z,21.90
2017-07-10T07:09:29.956Z,21.70
2017-07-10T07:11:55.993Z,21.60
2017-07-10T07:14:22.077Z,21.60
2017-07-10T07:16:48.120Z,21.60
2017-07-10T07:19:14.918Z,21.60
2017-07-10T07:21:40.948Z,21.60
2017-07-10T07:24:06.984Z,21.70
2017-07-10T07:26:33.040Z,21.70
2017-07-10T07:29:05.964Z,21.70
2017-07-10T07:31:32.024Z,21.70
2017-07-10T07:33:58.099Z,21.80
2017-07-10T07:36:24.875Z,21.90
2017-07-10T07:38:50.921Z,21.90
2017-07-10T07:41:16.970Z,22.10
2017-07-10T07:43:43.014Z,22.40
2017-07-10T07:46:09.067Z,22.30
2017-07-10T07:48:35.861Z,22.30
2017-07-10T07:51:02.593Z,22.20
2017-07-10T07:53:28.668Z,22.50
2017-07-10T07:55:54.799Z,22.50
2017-07-10T07:58:20.873Z,22.10
2017-07-10T08:00:46.933Z,22.10
2017-07-10T08:03:13.059Z,22.10
2017-07-10T08:05:39.101Z,22.10
2017-07-10T08:08:05.199Z,22.10
2017-07-10T08:10:31.275Z,22.30
2017-07-10T08:12:57.312Z,22.50
2017-07-10T08:15:23.367Z,22.70
2017-07-10T08:17:52.270Z,23.00
2017-07-10T08:20:18.352Z,22.90
2017-07-10T08:22:44.437Z,23.10
2017-07-10T08:25:10.655Z,23.30
2017-07-10T08:27:37.440Z,23.30
2017-07-10T08:30:03.513Z,23.30
2017-07-10T08:32:29.592Z,23.20
2017-07-10T08:34:55.668Z,23.20
2017-07-10T08:37:22.739Z,23.10
2017-07-10T08:39:49.511Z,23.20
2017-07-10T08:42:15.560Z,23.20
2017-07-10T08:44:42.412Z,23.20
2017-07-10T08:47:08.463Z,23.10
2017-07-10T08:49:34.528Z,23.10
2017-07-10T08:52:01.333Z,23.30
2017-07-10T08:54:27.401Z,23.30
2017-07-10T08:56:54.276Z,23.50
2017-07-10T08:59:20.320Z,23.50
2017-07-10T09:01:46.372Z,23.30
2017-07-10T09:04:12.446Z,23.20
2017-07-10T09:06:39.253Z,23.30
2017-07-10T09:09:05.307Z,23.30
2017-07-10T09:11:32.156Z,23.20
2017-07-10T09:13:58.222Z,23.30
2017-07-10T09:16:24.494Z,23.30
2017-07-10T09:18:50.574Z,23.20
2017-07-10T09:21:17.367Z,23.50
2017-07-10T09:23:43.445Z,23.50
2017-07-10T09:26:10.243Z,23.80
2017-07-10T09:28:36.311Z,23.80
2017-07-10T09:31:03.092Z,23.70
2017-07-10T09:33:29.143Z,23.70
2017-07-10T09:35:55.176Z,24.00
2017-07-10T09:38:21.224Z,24.10
2017-07-10T09:40:47.251Z,24.50
2017-07-10T09:43:13.296Z,24.80
2017-07-10T09:45:39.343Z,25.10
2017-07-10T09:48:06.144Z,25.20
2017-07-10T09:50:32.212Z,25.20
2017-07-10T09:52:59.032Z,25.00
2017-07-10T09:55:25.091Z,24.90
2017-07-10T09:57:51.881Z,25.40
2017-07-10T10:00:17.916Z,25.40
2017-07-10T10:02:43.955Z,25.40
2017-07-10T10:05:09.988Z,25.40
2017-07-10T10:07:36.041Z,25.50
2017-07-10T10:10:02.086Z,25.70
2017-07-10T10:12:28.865Z,25.30
2017-07-10T10:14:54.949Z,25.30
2017-07-10T10:17:21.011Z,25.10
2017-07-10T10:19:48.865Z,25.10
2017-07-10T10:22:17.703Z,25.30
2017-07-10T10:24:49.808Z,25.20
2017-07-10T10:27:30.225Z,25.40
2017-07-10T10:29:57.339Z,25.50
2017-07-10T10:32:37.713Z,25.60
2017-07-10T10:35:17.966Z,25.60
2017-07-10T10:37:54.705Z,26.00
2017-07-10T10:40:25.171Z,26.20
2017-07-10T10:42:51.225Z,26.20
2017-07-10T10:45:23.713Z,26.10
2017-07-10T10:47:57.068Z,26.00
2017-07-10T10:50:27.382Z,26.00
2017-07-10T10:52:55.175Z,26.30
2017-07-10T10:55:24.991Z,26.30
2017-07-10T10:58:08.334Z,26.60
2017-07-10T11:00:34.544Z,27.00
2017-07-10T11:03:01.697Z,27.60
2017-07-10T11:05:31.416Z,27.60
2017-07-10T11:08:00.721Z,27.30
2017-07-10T11:10:29.901Z,27.20
2017-07-10T11:12:56.752Z,26.60
2017-07-10T11:15:34.526Z,26.60
2017-07-10T11:18:01.401Z,26.30
2017-07-10T11:20:39.087Z,26.20
2017-07-10T11:23:07.055Z,25.90
2017-07-10T11:25:39.648Z,25.80
2017-07-10T11:28:12.068Z,25.90
2017-07-10T11:30:43.402Z,25.90
2017-07-10T11:33:09.531Z,26.00
2017-07-10T11:35:40.262Z,26.10
2017-07-10T11:38:06.364Z,26.00
2017-07-10T11:40:33.228Z,25.70
2017-07-10T11:43:08.964Z,25.50
2017-07-10T11:45:37.793Z,25.60
2017-07-10T11:48:04.001Z,25.60
2017-07-10T11:50:34.961Z,26.10
2017-07-10T11:53:04.346Z,26.10
2017-07-10T11:55:36.634Z,27.00
2017-07-10T11:58:09.194Z,27.00
2017-07-10T12:00:46.526Z,27.40
2017-07-10T12:03:16.920Z,27.30
2017-07-10T12:05:54.368Z,27.30
2017-07-10T12:08:33.788Z,27.30
2017-07-10T12:11:02.051Z,27.40
2017-07-10T12:13:29.206Z,27.70
2017-07-10T12:15:58.698Z,28.00
2017-07-10T12:18:30.969Z,28.50
2017-07-10T12:20:57.129Z,29.10
2017-07-10T12:23:23.304Z,28.80
2017-07-10T12:25:50.106Z,28.60
2017-07-10T12:28:16.207Z,28.60
2017-07-10T12:30:53.269Z,28.40
2017-07-10T12:33:21.224Z,27.70
2017-07-10T12:35:51.152Z,27.70
2017-07-10T12:38:18.025Z,27.40
2017-07-10T12:40:46.128Z,27.30
2017-07-10T12:43:22.786Z,27.20
2017-07-10T12:45:48.926Z,27.20
2017-07-10T12:48:18.339Z,27.30
2017-07-10T12:50:49.860Z,27.50
2017-07-10T12:53:18.636Z,27.80
2017-07-10T12:55:44.818Z,27.80
2017-07-10T12:58:32.688Z,28.10
2017-07-10T13:01:00.829Z,28.10
2017-07-10T13:03:26.927Z,27.90
2017-07-10T13:05:53.821Z,27.20
2017-07-10T13:08:20.846Z,27.20
2017-07-10T13:10:50.794Z,27.00
2017-07-10T13:13:21.173Z,26.60
2017-07-10T13:15:51.590Z,26.30
2017-07-10T13:18:24.632Z,26.50
2017-07-10T13:21:01.247Z,26.40
2017-07-10T13:23:28.118Z,26.60
2017-07-10T13:25:54.283Z,26.60
2017-07-10T13:28:20.394Z,26.80
2017-07-10T13:30:46.505Z,27.40
2017-07-10T13:33:17.857Z,27.90
2017-07-10T13:35:49.388Z,28.00
2017-07-10T13:38:16.666Z,28.00
2017-07-10T13:40:43.820Z,28.50
2017-07-10T13:43:21.056Z,28.90
2017-07-10T13:45:47.181Z,28.80
2017-07-10T13:48:14.316Z,29.00
2017-07-10T13:50:40.456Z,29.10
2017-07-10T13:53:11.284Z,29.30
2017-07-10T13:55:37.337Z,29.80
2017-07-10T13:58:03.452Z,30.40
2017-07-10T14:00:30.566Z,30.70
2017-07-10T14:02:56.606Z,31.00
2017-07-10T14:05:23.399Z,31.50
2017-07-10T14:07:49.431Z,31.50
2017-07-10T14:10:15.537Z,31.80
2017-07-10T14:12:41.568Z,31.90
2017-07-10T14:15:07.652Z,31.90
2017-07-10T14:17:34.848Z,32.10
2017-07-10T14:20:00.902Z,32.00
2017-07-10T14:22:26.977Z,31.60
2017-07-10T14:24:53.765Z,31.60
2017-07-10T14:27:19.849Z,31.50
2017-07-10T14:29:45.898Z,31.40
2017-07-10T14:32:13.703Z,31.00
2017-07-10T14:34:39.785Z,30.90
2017-07-10T14:37:05.859Z,31.10
2017-07-10T14:39:31.914Z,31.60
2017-07-10T14:42:04.989Z,31.90
2017-07-10T14:44:31.043Z,32.20
2017-07-10T14:47:01.856Z,32.60
2017-07-10T14:49:28.994Z,33.00
2017-07-10T14:51:55.363Z,33.10
2017-07-10T14:54:21.444Z,33.00
2017-07-10T14:56:47.512Z,33.00
2017-07-10T14:59:13.583Z,32.70
2017-07-10T15:01:39.671Z,32.80
2017-07-10T15:04:05.797Z,32.90
2017-07-10T15:06:31.896Z,32.90
2017-07-10T15:08:58.005Z,32.70
2017-07-10T15:11:24.074Z,32.50
2017-07-10T15:13:50.209Z,32.30
2017-07-10T15:16:16.272Z,32.50
2017-07-10T15:18:42.366Z,32.80
2017-07-10T15:21:08.422Z,32.80
2017-07-10T15:23:34.534Z,32.70
2017-07-10T15:26:00.584Z,32.50
2017-07-10T15:28:26.674Z,31.80
2017-07-10T15:30:52.817Z,31.20
2017-07-10T15:33:18.964Z,30.90
2017-07-10T15:35:45.042Z,30.40
2017-07-10T15:38:11.071Z,30.10
2017-07-10T15:40:37.151Z,29.80
2017-07-10T15:43:03.211Z,29.50
2017-07-10T15:45:29.287Z,29.40
2017-07-10T15:47:56.095Z,28.70
2017-07-10T15:50:22.156Z,28.70
2017-07-10T15:52:49.002Z,28.50
2017-07-10T15:55:15.831Z,28.30
2017-07-10T15:57:41.888Z,28.30
2017-07-10T16:00:08.755Z,28.00
2017-07-10T16:02:35.602Z,28.00
2017-07-10T16:05:01.691Z,27.90
2017-07-10T16:07:27.784Z,27.70
2017-07-10T16:09:53.972Z,27.50
2017-07-10T16:12:20.779Z,27.40
2017-07-10T16:14:46.852Z,27.40
2017-07-10T16:17:17.051Z,27.30
2017-07-10T16:19:43.185Z,27.20
2017-07-10T16:22:09.264Z,27.20
2017-07-10T16:24:35.333Z,27.30
2017-07-10T16:27:01.464Z,27.10
2017-07-10T16:29:27.512Z,27.00
2017-07-10T16:31:53.593Z,26.80
2017-07-10T16:34:19.756Z,26.70
2017-07-10T16:36:45.832Z,26.70
2017-07-10T16:39:12.633Z,26.70
2017-07-10T16:41:40.807Z,26.70
2017-07-10T16:44:11.102Z,26.70
2017-07-10T16:46:54.388Z,26.30
2017-07-10T16:49:33.203Z,26.10
2017-07-10T16:52:00.297Z,26.00
2017-07-10T16:54:26.337Z,25.90
2017-07-10T16:56:52.408Z,25.70
2017-07-10T16:59:18.553Z,25.70
2017-07-10T17:01:48.363Z,25.70
2017-07-10T17:04:17.619Z,25.70
2017-07-10T17:06:43.674Z,25.60
2017-07-10T17:09:16.015Z,25.60
2017-07-10T17:11:42.123Z,25.60
2017-07-10T17:14:10.020Z,26.00
2017-07-10T17:16:37.064Z,26.00
2017-07-10T17:19:03.128Z,26.20
2017-07-10T17:21:29.175Z,26.20
2017-07-10T17:23:55.236Z,26.20
2017-07-10T17:26:23.126Z,26.30
2017-07-10T17:28:49.205Z,26.20
2017-07-10T17:31:16.268Z,26.30
2017-07-10T17:33:45.994Z,26.20
2017-07-10T17:36:12.818Z,26.20
2017-07-10T17:38:42.507Z,26.20
2017-07-10T17:41:09.253Z,26.40
2017-07-10T17:43:35.341Z,26.40
2017-07-10T17:46:09.172Z,27.00
2017-07-10T17:48:35.272Z,27.00
2017-07-10T17:51:02.139Z,27.30
2017-07-10T17:53:34.120Z,27.30
2017-07-10T17:56:11.414Z,27.40
2017-07-10T17:58:51.844Z,27.40
2017-07-10T18:01:19.840Z,27.10
2017-07-10T18:03:46.882Z,27.00
2017-07-10T18:06:21.332Z,27.00
2017-07-10T18:08:54.103Z,27.00
2017-07-10T18:11:20.194Z,26.70
2017-07-10T18:13:50.755Z,26.60
2017-07-10T18:16:16.834Z,26.60
2017-07-10T18:18:42.891Z,26.60
2017-07-10T18:21:18.538Z,26.70
2017-07-10T18:23:56.207Z,26.70
2017-07-10T18:26:23.293Z,26.70
2017-07-10T18:28:57.898Z,26.70
2017-07-10T18:31:33.197Z,26.70
2017-07-10T18:34:02.802Z,26.70
2017-07-10T18:36:28.898Z,26.70
2017-07-10T18:38:56.803Z,26.70
2017-07-10T18:41:43.425Z,26.70
2017-07-10T18:44:09.567Z,26.70
2017-07-10T18:46:43.279Z,26.60
2017-07-10T18:49:09.651Z,26.60
2017-07-10T18:51:39.964Z,26.60
2017-07-10T18:54:13.376Z,26.60
2017-07-10T18:56:39.438Z,26.60
2017-07-10T18:59:16.814Z,26.60
2017-07-10T19:01:51.232Z,26.60
2017-07-10T19:04:25.565Z,26.50
2017-07-10T19:06:56.984Z,26.50
2017-07-10T19:09:36.241Z,26.40
2017-07-10T19:12:06.730Z,26.40
2017-07-10T19:14:39.050Z,26.20
2017-07-10T19:17:12.311Z,26.20
2017-07-10T19:19:45.601Z,26.00
2017-07-10T19:22:12.484Z,26.00
2017-07-10T19:24:49.259Z,26.00
2017-07-10T19:27:15.363Z,25.90
2017-07-10T19:29:41.491Z,25.90
2017-07-10T19:32:17.204Z,25.40
2017-07-10T19:34:46.605Z,25.40
2017-07-10T19:37:13.771Z,25.20
2017-07-10T19:39:41.958Z,25.10
2017-07-10T19:42:09.507Z,24.90
2017-07-10T19:44:35.577Z,24.70
2017-07-10T19:47:05.929Z,24.50
2017-07-10T19:49:37.299Z,24.50
2017-07-10T19:52:03.382Z,24.50
2017-07-10T19:54:36.788Z,24.30
2017-07-10T19:57:03.042Z,24.30
2017-07-10T19:59:32.466Z,24.20
2017-07-10T20:02:04.669Z,24.30
2017-07-10T20:04:42.151Z,24.10
2017-07-10T20:13:06.522Z,24.20
2017-07-10T20:18:26.181Z,24.00
2017-07-10T20:21:00.834Z,23.90
2017-07-10T20:23:51.000Z,24.00
2017-07-10T20:29:23.167Z,23.90
2017-07-10T20:32:13.540Z,23.80
2017-07-10T20:34:45.959Z,23.90
2017-07-10T20:37:12.103Z,23.80
2017-07-10T20:40:04.928Z,23.80
2017-07-10T20:42:31.013Z,23.60
2017-07-10T20:45:04.931Z,23.40
2017-07-10T20:47:45.092Z,23.30
2017-07-10T20:50:31.690Z,23.30
2017-07-10T20:56:01.921Z,23.60
2017-07-10T20:58:31.247Z,23.80
2017-07-10T21:00:57.291Z,23.90
2017-07-10T21:03:26.644Z,23.90
2017-07-10T21:11:47.920Z,23.50
2017-07-10T21:14:31.124Z,23.70
2017-07-10T21:17:10.569Z,23.70
2017-07-10T21:19:36.700Z,23.90
2017-07-10T21:22:09.240Z,24.00
2017-07-10T21:24:46.665Z,24.20
2017-07-10T21:27:26.085Z,24.10
2017-07-10T21:29:56.489Z,24.20
2017-07-10T21:32:26.962Z,23.70
2017-07-10T21:35:00.149Z,23.70
2017-07-10T21:37:37.496Z,23.50
2017-07-10T21:40:10.915Z,23.10
2017-07-10T21:42:48.184Z,23.10
2017-07-10T21:45:23.690Z,22.70
2017-07-10T21:47:57.841Z,22.70
2017-07-10T21:50:31.405Z,23.00
2017-07-10T21:52:58.516Z,23.00
2017-07-10T21:55:39.168Z,23.00
2017-07-10T21:58:13.601Z,22.90
2017-07-10T22:00:39.651Z,22.80
2017-07-10T22:03:06.069Z,22.90
2017-07-10T22:05:32.146Z,23.00
2017-07-10T22:07:58.215Z,22.90
2017-07-10T22:10:24.288Z,22.80
2017-07-10T22:12:50.368Z,22.60
2017-07-10T22:15:17.168Z,22.80
2017-07-10T22:17:43.227Z,22.80
2017-07-10T22:20:09.280Z,22.80
2017-07-10T22:22:36.134Z,22.70
2017-07-10T22:25:02.934Z,22.70
2017-07-10T22:27:29.027Z,22.70
2017-07-10T22:29:55.108Z,22.80
2017-07-10T22:32:21.156Z,22.70
2017-07-10T22:34:47.962Z,23.00
2017-07-10T22:37:14.061Z,22.90
2017-07-10T22:39:40.153Z,23.00
2017-07-10T22:42:06.226Z,23.10
2017-07-10T22:44:32.281Z,23.20
2017-07-10T22:46:58.343Z,23.30
2017-07-10T22:49:24.399Z,23.10
2017-07-10T22:51:51.246Z,22.60
2017-07-10T22:54:17.308Z,22.60
2017-07-10T22:56:43.361Z,22.60
2017-07-10T22:59:09.468Z,22.60
2017-07-10T23:01:35.533Z,22.60
2017-07-10T23:04:01.632Z,22.60
2017-07-10T23:06:27.704Z,22.50
2017-07-10T23:08:53.781Z,22.30
2017-07-10T23:11:19.837Z,22.30
2017-07-10T23:13:45.889Z,22.40
2017-07-10T23:16:32.435Z,22.30
2017-07-10T23:18:58.534Z,22.30
2017-07-10T23:21:25.331Z,22.10
2017-07-10T23:23:51.394Z,22.10
2017-07-10T23:26:17.454Z,22.10
2017-07-10T23:28:44.244Z,22.00
2017-07-10T23:31:10.314Z,22.00
2017-07-10T23:33:37.113Z,22.20
2017-07-10T23:36:03.228Z,22.20
2017-07-10T23:38:29.268Z,22.30
2017-07-10T23:40:56.815Z,22.40
2017-07-10T23:43:22.875Z,22.40
2017-07-10T23:45:48.986Z,22.40
2017-07-10T23:48:15.041Z,22.40
2017-07-10T23:50:41.108Z,22.50
2017-07-10T23:53:07.166Z,22.60
2017-07-10T23:55:33.216Z,22.50
2017-07-10T23:57:59.285Z,22.60
